createdAt,value
2019-05-03T00:00:27.415Z,0.00
2019-05-03T00:01:27.413Z,0.00
2019-05-03T00:02:27.438Z,0.00
2019-05-03T00:03:27.425Z,0.00
2019-05-03T00:04:27.443Z,0.00
2019-05-03T00:05:27.439Z,0.00
2019-05-03T00:06:27.447Z,0.00
2019-05-03T00:07:27.454Z,0.00
2019-05-03T00:08:27.461Z,0.00
2019-05-03T00:09:27.469Z,0.00
2019-05-03T00:10:27.472Z,0.00
2019-05-03T00:11:27.477Z,0.00
2019-05-03T00:12:27.480Z,0.00
2019-05-03T00:13:27.493Z,0.00
2019-05-03T00:14:27.493Z,0.00
2019-05-03T00:15:27.566Z,0.00
2019-05-03T00:16:27.510Z,0.00
2019-05-03T00:18:27.525Z,0.00
2019-05-03T00:19:27.529Z,0.00
2019-05-03T00:20:27.528Z,0.00
2019-05-03T00:21:27.539Z,0.00
2019-05-03T00:22:27.537Z,0.00
2019-05-03T00:23:27.548Z,0.00
2019-05-03T00:24:27.555Z,0.00
2019-05-03T00:25:27.578Z,0.00
2019-05-03T00:26:27.573Z,0.00
2019-05-03T00:27:27.586Z,0.00
2019-05-03T00:28:27.572Z,0.00
2019-05-03T00:29:27.613Z,0.00
2019-05-03T00:30:27.584Z,0.00
2019-05-03T00:31:27.593Z,0.00
2019-05-03T00:32:27.591Z,0.00
2019-05-03T00:33:27.608Z,0.00
2019-05-03T00:34:27.614Z,0.00
2019-05-03T00:35:27.619Z,0.00
2019-05-03T00:36:27.620Z,0.00
2019-05-03T00:37:27.622Z,0.00
2019-05-03T00:38:27.639Z,0.00
2019-05-03T00:39:27.650Z,0.00
2019-05-03T00:40:27.640Z,0.00
2019-05-03T00:41:27.650Z,0.00
2019-05-03T00:42:27.663Z,0.00
2019-05-03T00:43:27.667Z,0.00
2019-05-03T00:44:27.666Z,0.00
2019-05-03T00:45:27.672Z,0.00
2019-05-03T00:46:27.680Z,0.00
2019-05-03T00:47:27.682Z,0.00
2019-05-03T00:48:27.689Z,0.00
2019-05-03T00:49:27.699Z,0.00
2019-05-03T00:50:27.705Z,0.00
2019-05-03T00:51:27.708Z,0.00
2019-05-03T00:52:27.714Z,0.00
2019-05-03T00:53:27.717Z,0.00
2019-05-03T00:54:27.735Z,0.00
2019-05-03T00:55:27.728Z,0.00
2019-05-03T00:56:27.751Z,0.00
2019-05-03T00:57:27.813Z,0.00
2019-05-03T00:58:27.760Z,0.00
2019-05-03T00:59:27.750Z,0.00
2019-05-03T01:00:27.773Z,0.00
2019-05-03T01:01:27.776Z,0.00
2019-05-03T01:02:27.773Z,0.00
2019-05-03T01:03:27.783Z,0.00
2019-05-03T01:04:27.782Z,0.00
2019-05-03T01:05:27.792Z,0.00
2019-05-03T01:06:27.796Z,0.00
2019-05-03T01:07:27.801Z,0.00
2019-05-03T01:08:27.814Z,0.00
2019-05-03T01:09:27.813Z,0.00
2019-05-03T01:10:27.823Z,0.00
2019-05-03T01:11:27.823Z,0.00
2019-05-03T01:12:27.834Z,0.00
2019-05-03T01:13:27.840Z,0.00
2019-05-03T01:14:27.841Z,0.00
2019-05-03T01:15:27.851Z,0.00
2019-05-03T01:16:27.855Z,0.00
2019-05-03T01:17:27.951Z,0.00
2019-05-03T01:18:27.874Z,0.00
2019-05-03T01:19:27.878Z,0.00
2019-05-03T01:20:27.893Z,0.00
2019-05-03T01:21:27.888Z,0.00
2019-05-03T01:22:27.889Z,0.00
2019-05-03T01:23:27.894Z,0.00
2019-05-03T01:24:27.901Z,0.00
2019-05-03T01:25:32.316Z,0.00
2019-05-03T01:26:27.909Z,0.00
2019-05-03T01:27:28.003Z,0.00
2019-05-03T01:28:27.921Z,0.00
2019-05-03T01:29:27.931Z,0.00
2019-05-03T01:30:27.935Z,0.00
2019-05-03T01:31:27.938Z,0.00
2019-05-03T01:32:27.954Z,0.00
2019-05-03T01:33:27.956Z,0.00
2019-05-03T01:34:27.977Z,0.00
2019-05-03T01:35:27.961Z,0.00
2019-05-03T01:36:27.967Z,0.00
2019-05-03T01:37:27.972Z,0.00
2019-05-03T01:38:27.982Z,0.00
2019-05-03T01:39:27.986Z,0.00
2019-05-03T01:40:28.039Z,0.00
2019-05-03T01:41:28.006Z,0.00
2019-05-03T01:42:28.005Z,0.00
2019-05-03T01:43:28.008Z,0.00
2019-05-03T01:44:28.014Z,0.00
2019-05-03T01:45:28.021Z,0.00
2019-05-03T01:46:28.022Z,0.00
2019-05-03T01:47:28.038Z,0.00
2019-05-03T01:48:28.042Z,0.00
2019-05-03T01:49:28.044Z,0.00
2019-05-03T01:50:28.133Z,0.00
2019-05-03T01:52:28.063Z,0.00
2019-05-03T01:53:28.065Z,0.00
2019-05-03T01:54:28.070Z,0.00
2019-05-03T01:55:28.076Z,0.00
2019-05-03T01:56:28.096Z,0.00
2019-05-03T01:57:28.089Z,0.00
2019-05-03T01:58:28.098Z,0.00
2019-05-03T01:59:28.099Z,0.00
2019-05-03T02:00:28.107Z,0.00
2019-05-03T02:01:28.113Z,0.00
2019-05-03T02:02:28.120Z,0.00
2019-05-03T02:03:28.125Z,0.00
2019-05-03T02:04:28.134Z,0.00
2019-05-03T02:06:28.141Z,0.00
2019-05-03T02:07:28.135Z,0.00
2019-05-03T02:08:28.148Z,0.00
2019-05-03T02:09:28.158Z,0.00
2019-05-03T02:10:28.164Z,0.00
2019-05-03T02:11:28.169Z,0.00
2019-05-03T02:12:28.174Z,0.00
2019-05-03T02:13:28.178Z,0.00
2019-05-03T02:14:28.186Z,0.00
2019-05-03T02:15:28.176Z,0.00
2019-05-03T02:16:28.208Z,0.00
2019-05-03T02:17:28.209Z,0.00
2019-05-03T02:18:28.269Z,0.00
2019-05-03T02:19:28.212Z,0.00
2019-05-03T02:20:28.228Z,0.00
2019-05-03T02:21:28.224Z,0.00
2019-05-03T02:22:28.226Z,0.00
2019-05-03T02:23:28.232Z,0.00
2019-05-03T02:24:28.255Z,0.00
2019-05-03T02:25:28.250Z,0.00
2019-05-03T02:26:28.257Z,0.00
2019-05-03T02:27:28.256Z,0.00
2019-05-03T02:28:28.260Z,0.00
2019-05-03T02:29:28.270Z,0.00
2019-05-03T02:30:28.273Z,0.00
2019-05-03T02:31:28.289Z,0.00
2019-05-03T02:32:28.288Z,0.00
2019-05-03T02:33:28.296Z,0.00
2019-05-03T02:34:28.302Z,0.00
2019-05-03T02:35:28.313Z,0.00
2019-05-03T02:36:28.308Z,0.00
2019-05-03T02:37:28.313Z,0.00
2019-05-03T02:38:28.412Z,0.00
2019-05-03T02:39:28.321Z,0.00
2019-05-03T02:40:28.360Z,0.00
2019-05-03T02:41:28.409Z,0.00
2019-05-03T02:42:28.490Z,0.00
2019-05-03T02:43:28.517Z,0.00
2019-05-03T02:44:28.357Z,0.00
2019-05-03T02:45:28.383Z,0.00
2019-05-03T02:46:28.467Z,0.00
2019-05-03T02:47:28.473Z,0.00
2019-05-03T02:48:28.418Z,0.00
2019-05-03T02:49:28.380Z,0.00
2019-05-03T02:50:28.388Z,0.00
2019-05-03T02:51:28.417Z,0.00
2019-05-03T02:52:28.399Z,0.00
2019-05-03T02:53:28.405Z,0.00
2019-05-03T02:54:28.407Z,0.00
2019-05-03T02:55:28.421Z,0.00
2019-05-03T02:56:28.439Z,0.00
2019-05-03T02:57:28.452Z,0.00
2019-05-03T02:58:28.430Z,0.00
2019-05-03T02:59:28.437Z,0.00
2019-05-03T03:00:28.444Z,0.00
2019-05-03T03:01:28.456Z,0.00
2019-05-03T03:02:28.462Z,0.00
2019-05-03T03:03:28.458Z,0.00
2019-05-03T03:04:28.457Z,0.00
2019-05-03T03:05:28.474Z,0.00
2019-05-03T03:06:28.474Z,0.00
2019-05-03T03:07:28.486Z,0.00
2019-05-03T03:08:28.505Z,0.00
2019-05-03T03:09:28.493Z,0.00
2019-05-03T03:10:28.501Z,0.00
2019-05-03T03:11:28.509Z,0.00
2019-05-03T03:12:28.515Z,0.00
2019-05-03T03:13:28.535Z,0.00
2019-05-03T03:14:28.521Z,0.00
2019-05-03T03:15:28.524Z,0.00
2019-05-03T03:16:28.533Z,0.00
2019-05-03T03:17:28.541Z,0.00
2019-05-03T03:18:28.543Z,0.00
2019-05-03T03:19:28.551Z,0.00
2019-05-03T03:20:28.554Z,0.00
2019-05-03T03:21:28.562Z,0.00
2019-05-03T03:22:28.574Z,0.00
2019-05-03T03:23:28.687Z,0.00
2019-05-03T03:24:28.583Z,0.00
2019-05-03T03:25:28.584Z,0.00
2019-05-03T03:26:37.256Z,4.00
2019-05-03T03:27:28.593Z,4.00
2019-05-03T03:28:28.598Z,0.00
2019-05-03T05:23:05.782Z,2352.00
2019-05-03T05:24:05.823Z,2324.00
2019-05-03T05:25:05.682Z,2408.00
2019-05-03T05:26:05.718Z,2504.00
2019-05-03T05:27:05.701Z,2544.00
2019-05-03T05:28:05.703Z,2600.00
2019-05-03T05:29:05.712Z,2692.00
2019-05-03T05:30:05.712Z,2716.00
2019-05-03T05:31:05.723Z,2880.00
2019-05-03T05:32:05.721Z,2816.00
2019-05-03T05:33:05.730Z,2904.00
2019-05-03T05:34:08.561Z,2956.00
2019-05-03T05:35:05.734Z,3028.00
2019-05-03T05:36:05.749Z,3108.00
2019-05-03T05:38:05.761Z,3188.00
2019-05-03T05:39:05.768Z,3384.00
2019-05-03T05:40:05.776Z,3332.00
2019-05-03T05:41:05.777Z,3364.00
2019-05-03T05:42:05.787Z,3384.00
2019-05-03T05:43:05.794Z,3536.00
2019-05-03T05:44:05.799Z,4120.00
2019-05-03T05:45:05.795Z,3808.00
2019-05-03T05:46:05.807Z,3684.00
2019-05-03T05:47:05.821Z,3936.00
2019-05-03T05:48:05.823Z,4324.00
2019-05-03T05:49:05.826Z,4408.00
2019-05-03T05:50:05.835Z,4340.00
2019-05-03T05:51:05.846Z,4224.00
2019-05-03T05:52:05.845Z,4516.00
2019-05-03T05:53:05.925Z,4904.00
2019-05-03T05:54:05.864Z,3796.00
2019-05-03T05:55:05.867Z,3984.00
2019-05-03T05:56:05.872Z,4004.00
2019-05-03T05:57:08.419Z,3712.00
2019-05-03T05:58:08.152Z,4748.00
2019-05-03T05:59:05.883Z,3380.00
2019-05-03T06:00:05.902Z,5016.00
2019-05-03T06:01:05.909Z,5048.00
2019-05-03T06:02:05.917Z,5100.00
2019-05-03T06:03:05.920Z,5264.00
2019-05-03T06:04:05.927Z,5024.00
2019-05-03T06:05:05.958Z,5184.00
2019-05-03T06:06:05.948Z,4664.00
2019-05-03T06:07:05.961Z,5248.00
2019-05-03T06:08:05.959Z,4284.00
2019-05-03T06:09:06.116Z,5972.00
2019-05-03T06:10:05.983Z,6164.00
2019-05-03T06:11:05.991Z,6464.00
2019-05-03T06:12:05.996Z,6240.00
2019-05-03T06:13:06.006Z,6960.00
2019-05-03T06:14:06.016Z,5824.00
2019-05-03T06:15:06.030Z,6064.00
2019-05-03T06:16:06.039Z,6712.00
2019-05-03T06:17:06.059Z,6528.00
2019-05-03T06:18:06.054Z,6692.00
2019-05-03T06:19:06.074Z,6784.00
2019-05-03T06:20:06.073Z,6784.00
2019-05-03T06:21:06.110Z,6968.00
2019-05-03T06:22:06.094Z,8420.00
2019-05-03T06:23:06.107Z,8360.00
2019-05-03T06:24:06.116Z,7728.00
2019-05-03T06:25:06.717Z,7420.00
2019-05-03T06:26:06.134Z,7244.00
2019-05-03T06:27:06.140Z,7248.00
2019-05-03T06:28:17.759Z,7436.00
2019-05-03T06:29:06.162Z,7984.00
2019-05-03T06:30:06.162Z,7272.00
2019-05-03T06:31:06.184Z,6952.00
2019-05-03T06:32:06.192Z,6712.00
2019-05-03T06:33:06.197Z,6760.00
2019-05-03T06:34:06.212Z,7196.00
2019-05-03T06:35:06.222Z,7052.00
2019-05-03T06:36:06.230Z,6848.00
2019-05-03T06:37:06.237Z,6744.00
2019-05-03T06:38:06.247Z,7124.00
2019-05-03T06:39:08.327Z,6968.00
2019-05-03T06:40:06.322Z,7328.00
2019-05-03T06:41:06.277Z,6584.00
2019-05-03T06:42:10.045Z,5972.00
2019-05-03T06:43:09.771Z,6332.00
2019-05-03T06:44:06.304Z,9036.00
2019-05-03T06:45:10.542Z,8880.00
2019-05-03T06:46:06.322Z,8768.00
2019-05-03T06:47:10.349Z,8616.00
2019-05-03T06:48:06.347Z,8700.00
2019-05-03T06:49:10.004Z,8844.00
2019-05-03T06:50:06.370Z,8848.00
2019-05-03T06:51:10.975Z,8896.00
2019-05-03T06:52:06.393Z,8444.00
2019-05-03T06:53:12.669Z,9248.00
2019-05-03T06:54:06.435Z,6796.00
2019-05-03T06:55:10.545Z,9276.00
2019-05-03T06:56:06.436Z,5756.00
2019-05-03T06:57:09.484Z,5812.00
2019-05-03T06:58:06.471Z,6200.00
2019-05-03T06:59:06.471Z,5564.00
2019-05-03T07:00:06.484Z,5572.00
2019-05-03T07:01:06.520Z,6500.00
2019-05-03T07:02:06.504Z,8356.00
2019-05-03T07:03:06.510Z,8324.00
2019-05-03T07:04:06.523Z,8116.00
2019-05-03T07:05:06.537Z,6308.00
2019-05-03T07:06:06.543Z,6556.00
2019-05-03T07:07:06.558Z,6788.00
2019-05-03T07:08:06.560Z,9704.00
2019-05-03T07:09:06.575Z,7568.00
2019-05-03T07:10:06.582Z,7256.00
2019-05-03T07:11:06.599Z,10096.00
2019-05-03T07:12:06.604Z,7236.00
2019-05-03T07:13:08.927Z,6740.00
2019-05-03T07:14:06.628Z,6588.00
2019-05-03T07:15:06.682Z,6388.00
2019-05-03T07:16:06.650Z,6160.00
2019-05-03T07:17:06.663Z,6164.00
2019-05-03T07:18:06.666Z,8000.00
2019-05-03T07:19:06.671Z,7072.00
2019-05-03T07:20:06.686Z,6900.00
2019-05-03T07:21:06.709Z,6548.00
2019-05-03T07:22:06.703Z,6260.00
2019-05-03T07:23:06.715Z,6240.00
2019-05-03T07:24:06.721Z,6340.00
2019-05-03T07:25:06.760Z,6396.00
2019-05-03T07:27:06.757Z,5940.00
2019-05-03T07:28:06.756Z,5624.00
2019-05-03T07:29:06.771Z,5504.00
2019-05-03T07:30:06.785Z,5844.00
2019-05-03T07:31:06.783Z,6152.00
2019-05-03T07:32:06.793Z,6496.00
2019-05-03T07:33:06.834Z,6944.00
2019-05-03T07:34:06.810Z,7168.00
2019-05-03T07:35:06.815Z,7456.00
2019-05-03T07:36:06.839Z,7404.00
2019-05-03T07:37:06.838Z,7204.00
2019-05-03T07:38:06.844Z,6892.00
2019-05-03T07:39:06.848Z,6500.00
2019-05-03T07:40:06.859Z,6032.00
2019-05-03T07:41:06.869Z,5872.00
2019-05-03T07:42:07.015Z,5984.00
2019-05-03T07:43:06.884Z,6152.00
2019-05-03T07:44:06.897Z,6380.00
2019-05-03T07:46:06.904Z,6820.00
2019-05-03T07:47:06.926Z,7068.00
2019-05-03T07:48:06.920Z,7348.00
2019-05-03T07:49:06.931Z,7768.00
2019-05-03T07:50:06.941Z,13564.00
2019-05-03T07:51:06.953Z,14616.00
2019-05-03T07:52:06.955Z,16320.00
2019-05-03T07:53:06.964Z,15548.00
2019-05-03T07:54:06.997Z,16704.00
2019-05-03T07:55:06.989Z,17056.00
2019-05-03T07:56:06.998Z,16736.00
2019-05-03T07:57:07.013Z,17216.00
2019-05-03T07:58:07.029Z,16960.00
2019-05-03T07:59:07.033Z,16192.00
2019-05-03T08:00:07.081Z,16032.00
2019-05-03T08:01:09.793Z,16800.00
2019-05-03T08:02:07.069Z,17792.00
2019-05-03T08:03:07.074Z,16544.00
2019-05-03T08:04:07.098Z,16256.00
2019-05-03T08:05:07.115Z,17056.00
2019-05-03T08:06:07.140Z,9220.00
2019-05-03T08:07:19.344Z,8152.00
2019-05-03T08:08:07.154Z,7748.00
2019-05-03T08:09:07.161Z,7408.00
2019-05-03T08:10:07.172Z,7188.00
2019-05-03T08:11:07.176Z,6884.00
2019-05-03T08:12:07.192Z,6840.00
2019-05-03T08:13:07.211Z,6756.00
2019-05-03T08:14:07.217Z,6768.00
2019-05-03T08:15:07.229Z,7052.00
2019-05-03T08:16:07.242Z,6848.00
2019-05-03T08:17:07.253Z,7936.00
2019-05-03T08:19:07.275Z,17984.00
2019-05-03T08:20:07.286Z,16736.00
2019-05-03T08:21:07.291Z,18144.00
2019-05-03T08:22:07.373Z,18816.00
2019-05-03T08:23:07.320Z,18976.00
2019-05-03T08:24:07.329Z,20288.00
2019-05-03T08:25:07.358Z,19840.00
2019-05-03T08:26:07.359Z,19616.00
2019-05-03T08:27:07.379Z,19680.00
2019-05-03T08:28:07.384Z,15744.00
2019-05-03T08:29:16.149Z,14000.00
2019-05-03T08:30:07.408Z,10968.00
2019-05-03T08:31:08.381Z,10476.00
2019-05-03T08:32:07.438Z,9236.00
2019-05-03T08:33:07.451Z,8840.00
2019-05-03T08:34:07.468Z,8656.00
2019-05-03T08:35:07.478Z,8604.00
2019-05-03T08:36:07.486Z,8748.00
2019-05-03T08:37:07.501Z,17760.00
2019-05-03T08:38:07.517Z,13748.00
2019-05-03T08:39:07.542Z,10572.00
2019-05-03T08:40:07.534Z,13500.00
2019-05-03T08:41:07.548Z,10428.00
2019-05-03T08:42:07.559Z,10680.00
2019-05-03T08:43:07.569Z,20032.00
2019-05-03T08:44:07.575Z,21056.00
2019-05-03T08:45:08.145Z,9944.00
2019-05-03T08:46:07.604Z,9932.00
2019-05-03T08:47:07.614Z,21792.00
2019-05-03T08:48:07.620Z,21760.00
2019-05-03T08:49:07.640Z,20640.00
2019-05-03T08:50:07.665Z,21536.00
2019-05-03T08:51:07.662Z,21568.00
2019-05-03T08:52:07.669Z,22720.00
2019-05-03T08:53:07.691Z,24192.00
2019-05-03T08:54:07.701Z,24864.00
2019-05-03T08:55:07.730Z,22688.00
2019-05-03T08:56:07.728Z,22464.00
2019-05-03T08:57:07.745Z,23808.00
2019-05-03T08:58:07.753Z,20544.00
2019-05-03T08:59:07.774Z,11780.00
2019-05-03T09:00:07.791Z,9556.00
2019-05-03T09:01:07.796Z,8516.00
2019-05-03T09:02:14.008Z,7856.00
2019-05-03T09:03:07.826Z,7252.00
2019-05-03T09:04:07.838Z,6912.00
2019-05-03T09:05:07.855Z,6568.00
2019-05-03T09:06:07.864Z,6464.00
2019-05-03T09:07:07.978Z,6348.00
2019-05-03T09:08:07.893Z,6300.00
2019-05-03T09:09:07.903Z,6368.00
2019-05-03T09:10:12.238Z,6576.00
2019-05-03T09:11:07.931Z,6920.00
2019-05-03T09:12:07.934Z,7304.00
2019-05-03T09:13:07.970Z,7792.00
2019-05-03T09:14:07.953Z,8312.00
2019-05-03T09:15:07.968Z,8828.00
2019-05-03T09:16:08.023Z,9452.00
2019-05-03T09:17:07.991Z,11112.00
2019-05-03T09:18:07.996Z,21248.00
2019-05-03T09:19:08.026Z,27136.00
2019-05-03T09:20:08.034Z,26944.00
2019-05-03T09:21:08.043Z,20768.00
2019-05-03T09:22:08.062Z,26560.00
2019-05-03T09:23:08.059Z,19456.00
2019-05-03T09:24:08.068Z,26240.00
2019-05-03T09:25:08.075Z,25792.00
2019-05-03T09:26:08.119Z,11140.00
2019-05-03T09:27:08.103Z,10236.00
2019-05-03T09:28:08.118Z,10192.00
2019-05-03T09:29:08.126Z,10596.00
2019-05-03T09:30:08.153Z,11076.00
2019-05-03T09:31:08.163Z,11548.00
2019-05-03T09:32:08.166Z,16576.00
2019-05-03T09:33:09.214Z,13216.00
2019-05-03T09:34:08.429Z,14060.00
2019-05-03T09:35:08.204Z,17696.00
2019-05-03T09:36:08.277Z,19808.00
2019-05-03T09:37:08.240Z,10800.00
2019-05-03T09:38:08.237Z,9808.00
2019-05-03T09:39:08.245Z,9340.00
2019-05-03T09:40:08.256Z,15320.00
2019-05-03T09:41:08.270Z,8876.00
2019-05-03T09:42:08.281Z,9040.00
2019-05-03T09:43:08.288Z,9644.00
2019-05-03T09:44:08.908Z,10124.00
2019-05-03T09:45:08.318Z,10540.00
2019-05-03T09:46:08.325Z,10592.00
2019-05-03T09:47:08.332Z,10908.00
2019-05-03T09:48:08.346Z,11404.00
2019-05-03T09:49:13.294Z,11708.00
2019-05-03T09:50:08.370Z,12764.00
2019-05-03T09:51:08.378Z,23776.00
2019-05-03T09:52:08.732Z,27456.00
2019-05-03T09:53:09.105Z,27104.00
2019-05-03T09:54:08.414Z,27520.00
2019-05-03T09:55:08.420Z,31136.00
2019-05-03T09:56:08.533Z,30240.00
2019-05-03T09:57:08.460Z,14860.00
2019-05-03T09:58:08.456Z,13104.00
2019-05-03T09:59:08.467Z,11912.00
2019-05-03T10:00:08.475Z,10756.00
2019-05-03T10:01:08.722Z,9912.00
2019-05-03T10:02:08.512Z,9120.00
2019-05-03T10:03:08.521Z,8376.00
2019-05-03T10:04:08.529Z,7880.00
2019-05-03T10:05:08.535Z,7408.00
2019-05-03T10:06:08.560Z,7064.00
2019-05-03T10:07:08.564Z,6636.00
2019-05-03T10:08:08.578Z,6572.00
2019-05-03T10:09:08.578Z,6732.00
2019-05-03T10:10:08.583Z,7216.00
2019-05-03T10:11:08.602Z,7656.00
2019-05-03T10:12:08.617Z,8800.00
2019-05-03T10:13:14.442Z,20064.00
2019-05-03T10:14:08.623Z,31488.00
2019-05-03T10:15:08.647Z,25120.00
2019-05-03T10:16:08.663Z,31456.00
2019-05-03T10:17:08.744Z,33024.00
2019-05-03T10:18:10.941Z,33760.00
2019-05-03T10:19:08.685Z,32608.00
2019-05-03T10:20:08.704Z,30816.00
2019-05-03T10:21:08.711Z,30784.00
2019-05-03T10:22:08.738Z,32544.00
2019-05-03T10:23:08.743Z,35712.00
2019-05-03T10:24:08.752Z,33760.00
2019-05-03T10:25:08.767Z,30240.00
2019-05-03T10:26:08.780Z,35232.00
2019-05-03T10:27:09.486Z,35776.00
2019-05-03T10:28:08.827Z,30144.00
2019-05-03T10:29:08.842Z,32736.00
2019-05-03T10:30:12.973Z,16520.00
2019-05-03T10:31:08.861Z,14168.00
2019-05-03T10:32:08.864Z,12352.00
2019-05-03T10:33:08.892Z,11000.00
2019-05-03T10:34:08.903Z,9252.00
2019-05-03T10:35:08.909Z,8132.00
2019-05-03T10:36:08.923Z,7208.00
2019-05-03T10:37:08.937Z,6508.00
2019-05-03T10:38:08.960Z,5900.00
2019-05-03T10:39:08.968Z,5308.00
2019-05-03T10:40:08.981Z,4956.00
2019-05-03T10:41:08.985Z,4676.00
2019-05-03T10:42:08.998Z,4732.00
2019-05-03T10:43:09.020Z,4784.00
2019-05-03T10:44:09.019Z,4976.00
2019-05-03T10:45:09.047Z,5288.00
2019-05-03T10:46:09.042Z,5352.00
2019-05-03T10:47:09.064Z,5748.00
2019-05-03T10:48:09.068Z,6100.00
2019-05-03T10:49:09.087Z,6556.00
2019-05-03T10:50:09.121Z,6972.00
2019-05-03T10:51:09.101Z,7856.00
2019-05-03T10:52:09.114Z,8644.00
2019-05-03T10:53:09.138Z,9440.00
2019-05-03T10:54:09.132Z,10600.00
2019-05-03T10:55:09.145Z,12612.00
2019-05-03T10:56:09.157Z,12904.00
2019-05-03T10:57:09.159Z,30976.00
2019-05-03T10:58:09.184Z,32992.00
2019-05-03T10:59:09.182Z,34784.00
2019-05-03T11:00:09.200Z,22752.00
2019-05-03T11:01:09.213Z,29056.00
2019-05-03T11:02:09.216Z,17056.00
2019-05-03T11:03:09.230Z,33568.00
2019-05-03T11:04:09.250Z,15028.00
2019-05-03T11:05:09.274Z,15364.00
2019-05-03T11:06:09.260Z,15960.00
2019-05-03T11:07:09.292Z,20864.00
2019-05-03T11:08:09.288Z,15788.00
2019-05-03T11:09:09.304Z,20704.00
2019-05-03T11:10:09.326Z,15948.00
2019-05-03T11:11:09.325Z,18368.00
2019-05-03T11:12:09.336Z,15600.00
2019-05-03T11:13:09.355Z,13000.00
2019-05-03T11:14:09.365Z,14656.00
2019-05-03T11:15:09.422Z,15388.00
2019-05-03T11:16:09.387Z,14244.00
2019-05-03T11:17:09.397Z,13464.00
2019-05-03T11:18:09.421Z,14988.00
2019-05-03T11:19:09.431Z,14640.00
2019-05-03T11:20:09.443Z,11884.00
2019-05-03T11:21:09.449Z,10920.00
2019-05-03T11:22:09.568Z,10236.00
2019-05-03T11:23:09.488Z,9448.00
2019-05-03T11:24:09.477Z,9028.00
2019-05-03T11:25:09.493Z,8580.00
2019-05-03T11:26:09.504Z,8196.00
2019-05-03T11:27:09.513Z,7948.00
2019-05-03T11:28:09.529Z,8248.00
2019-05-03T11:29:09.548Z,8696.00
2019-05-03T11:30:09.922Z,9340.00
2019-05-03T11:31:09.578Z,9024.00
2019-05-03T11:32:11.003Z,9616.00
2019-05-03T11:33:09.577Z,10616.00
2019-05-03T11:34:09.617Z,12864.00
2019-05-03T11:35:11.690Z,16348.00
2019-05-03T11:36:09.600Z,17504.00
2019-05-03T11:37:09.622Z,23072.00
2019-05-03T11:38:09.631Z,35520.00
2019-05-03T11:39:09.644Z,36224.00
2019-05-03T11:40:09.658Z,29920.00
2019-05-03T11:41:09.687Z,20064.00
2019-05-03T11:42:09.683Z,28064.00
2019-05-03T11:43:09.696Z,20128.00
2019-05-03T11:44:09.703Z,30752.00
2019-05-03T11:45:09.714Z,34976.00
2019-05-03T11:46:09.732Z,15016.00
2019-05-03T11:47:09.820Z,15004.00
2019-05-03T11:48:09.755Z,13952.00
2019-05-03T11:49:09.790Z,12676.00
2019-05-03T11:50:09.801Z,11596.00
2019-05-03T11:51:09.854Z,11136.00
2019-05-03T11:52:09.804Z,11064.00
2019-05-03T11:53:09.827Z,11444.00
2019-05-03T11:54:09.838Z,12040.00
2019-05-03T11:55:11.850Z,13072.00
2019-05-03T11:56:09.876Z,14944.00
2019-05-03T11:57:09.957Z,15248.00
2019-05-03T11:59:09.892Z,28672.00
2019-05-03T12:00:09.907Z,27840.00
2019-05-03T12:01:15.828Z,27648.00
2019-05-03T12:02:09.946Z,26208.00
2019-05-03T12:03:09.948Z,21568.00
2019-05-03T12:04:09.950Z,12380.00
2019-05-03T12:05:10.004Z,14548.00
2019-05-03T12:06:09.986Z,16864.00
2019-05-03T12:07:10.005Z,14056.00
2019-05-03T12:08:10.015Z,28512.00
2019-05-03T12:09:10.031Z,27936.00
2019-05-03T12:10:26.569Z,28416.00
2019-05-03T12:11:10.054Z,28608.00
2019-05-03T12:12:10.083Z,29248.00
2019-05-03T12:13:10.082Z,28736.00
2019-05-03T12:14:10.103Z,28896.00
2019-05-03T12:15:10.134Z,31904.00
2019-05-03T12:16:18.044Z,13912.00
2019-05-03T12:17:19.522Z,11904.00
2019-05-03T12:18:10.776Z,11876.00
2019-05-03T12:19:16.910Z,11708.00
2019-05-03T12:20:11.687Z,11388.00
2019-05-03T12:21:11.504Z,10408.00
2019-05-03T12:22:10.866Z,9852.00
2019-05-03T12:23:10.843Z,9816.00
2019-05-03T12:24:10.803Z,11644.00
2019-05-03T12:25:11.376Z,18336.00
2019-05-03T12:26:13.422Z,28032.00
2019-05-03T12:27:10.290Z,27296.00
2019-05-03T12:28:10.305Z,27648.00
2019-05-03T12:29:10.318Z,27456.00
2019-05-03T12:30:10.336Z,28064.00
2019-05-03T12:31:25.912Z,28000.00
2019-05-03T12:32:10.364Z,29056.00
2019-05-03T12:33:10.380Z,28416.00
2019-05-03T12:34:10.390Z,12436.00
2019-05-03T12:35:10.417Z,12796.00
2019-05-03T12:36:10.420Z,14056.00
2019-05-03T12:37:10.443Z,28544.00
2019-05-03T12:38:10.447Z,30432.00
2019-05-03T12:39:24.087Z,29024.00
2019-05-03T12:40:10.488Z,13424.00
2019-05-03T12:41:10.508Z,12332.00
2019-05-03T12:42:10.504Z,12900.00
2019-05-03T12:43:10.524Z,12108.00
2019-05-03T12:45:10.559Z,10100.00
2019-05-03T12:46:10.566Z,9652.00
2019-05-03T12:47:10.590Z,9328.00
2019-05-03T12:48:10.688Z,9188.00
2019-05-03T12:49:10.608Z,9360.00
2019-05-03T12:50:10.621Z,9480.00
2019-05-03T12:51:11.005Z,9620.00
2019-05-03T12:52:11.236Z,9808.00
2019-05-03T12:53:10.653Z,13240.00
2019-05-03T12:54:10.668Z,25952.00
2019-05-03T12:55:10.786Z,10792.00
2019-05-03T12:56:13.338Z,10724.00
2019-05-03T12:57:10.709Z,10692.00
2019-05-03T12:58:10.736Z,10828.00
2019-05-03T12:59:10.733Z,10420.00
2019-05-03T13:00:10.748Z,9724.00
2019-05-03T13:01:10.762Z,9132.00
2019-05-03T13:02:10.764Z,8300.00
2019-05-03T13:03:10.803Z,7500.00
2019-05-03T13:04:10.792Z,6984.00
2019-05-03T13:05:10.891Z,6708.00
2019-05-03T13:06:10.820Z,6652.00
2019-05-03T13:07:10.828Z,6544.00
2019-05-03T13:08:10.851Z,6536.00
2019-05-03T13:09:10.854Z,7052.00
2019-05-03T13:10:10.863Z,8640.00
2019-05-03T13:11:10.875Z,13540.00
2019-05-03T13:12:11.024Z,24608.00
2019-05-03T13:13:10.892Z,25216.00
2019-05-03T13:14:10.912Z,25376.00
2019-05-03T13:15:10.918Z,25152.00
2019-05-03T13:16:10.926Z,10716.00
2019-05-03T13:17:11.371Z,10036.00
2019-05-03T13:18:10.955Z,9872.00
2019-05-03T13:19:10.970Z,9732.00
2019-05-03T13:20:10.980Z,9436.00
2019-05-03T13:21:10.985Z,9608.00
2019-05-03T13:22:11.110Z,9928.00
2019-05-03T13:23:12.917Z,16928.00
2019-05-03T13:24:22.473Z,18048.00
2019-05-03T13:25:11.040Z,13424.00
2019-05-03T13:26:11.048Z,10132.00
2019-05-03T13:27:11.069Z,17472.00
2019-05-03T13:28:11.073Z,20896.00
2019-05-03T13:29:11.097Z,16960.00
2019-05-03T13:30:11.099Z,13336.00
2019-05-03T13:31:11.115Z,15544.00
2019-05-03T13:32:11.123Z,16672.00
2019-05-03T13:33:11.135Z,19968.00
2019-05-03T13:34:11.150Z,22592.00
2019-05-03T13:35:11.158Z,22208.00
2019-05-03T13:36:11.190Z,22176.00
2019-05-03T13:37:11.189Z,9092.00
2019-05-03T13:38:11.209Z,8096.00
2019-05-03T13:39:14.475Z,7560.00
2019-05-03T13:40:11.307Z,7276.00
2019-05-03T13:41:11.254Z,6976.00
2019-05-03T13:42:11.256Z,6876.00
2019-05-03T13:43:11.268Z,6936.00
2019-05-03T13:45:11.292Z,7684.00
2019-05-03T13:46:11.307Z,7876.00
2019-05-03T13:47:11.331Z,7708.00
2019-05-03T13:48:12.349Z,6852.00
2019-05-03T13:49:11.341Z,6184.00
2019-05-03T13:50:11.360Z,5644.00
2019-05-03T13:51:11.364Z,5408.00
2019-05-03T13:52:11.392Z,4920.00
2019-05-03T13:53:11.387Z,4556.00
2019-05-03T13:54:11.399Z,4252.00
2019-05-03T13:55:11.412Z,4144.00
2019-05-03T13:56:11.453Z,3928.00
2019-05-03T13:57:11.456Z,3844.00
2019-05-03T13:58:11.467Z,3772.00
2019-05-03T13:59:18.778Z,3756.00
2019-05-03T14:00:11.479Z,3860.00
2019-05-03T14:01:11.483Z,4032.00
2019-05-03T14:03:11.505Z,4900.00
2019-05-03T14:04:11.618Z,5956.00
2019-05-03T14:05:11.509Z,15744.00
2019-05-03T14:06:11.526Z,10940.00
2019-05-03T14:07:11.549Z,14332.00
2019-05-03T14:08:11.532Z,19680.00
2019-05-03T14:09:11.568Z,14772.00
2019-05-03T14:10:11.562Z,20064.00
2019-05-03T14:11:11.577Z,19200.00
2019-05-03T14:12:11.612Z,18400.00
2019-05-03T14:13:11.595Z,14944.00
2019-05-03T14:14:11.606Z,14024.00
2019-05-03T14:15:11.634Z,14828.00
2019-05-03T14:16:11.651Z,15544.00
2019-05-03T14:17:11.656Z,15372.00
2019-05-03T14:18:11.674Z,16448.00
2019-05-03T14:19:11.682Z,10360.00
2019-05-03T14:20:11.698Z,11404.00
2019-05-03T14:21:11.716Z,13068.00